Skip Navigation Links
NOAA logo - Click to go to the NOAA homepage
NOAA's National Weather Service
Alaska Aviation Weather Unit
  NWS logo - Click to go to the NWS homepage
Left Navbar Graphic     22 AKDT = 06 GMT

   
NOAA is celebrating 200 years of science, service, and stewardship. Visit the NOAA 200th celebration Web site to learn more.
USA.gov is the U.S. Government's official Web portal to all Federal, state and local government Web resources and services.
Facebook
NWS on Facebook

Important Change Regarding the AAWU Web Presence

 

Over the last several months, the AAWU has been working to navigate its webpages to a nationally supported server. Security, as well as other needs, have necessitated the change.  We have been given an extension for the site changeover while we diligently work at addressing feedback received. As of July 14, 2017, aawu.arh.noaa.gov will be discontinued. The new AAWU web address is weather.gov/aawu. It is now live and will run in-parallel with the old site until it is discontinued on July 14, 2017. Please continue to send any feedback or questions regarding the new webpages to nws.ar.aawu.webauthors@noaa.gov.  Thank you for your patience during this time of transition.
AAWU Home :: Display TAF Add Bookmark
TAF CYQH 260538Z 2606/2618 VRB03KT P6SM SCT060 BKN090 TEMPO 2606/2618
     P6SM -SHRA BKN060
    RMK NXT FCST BY 261200Z=

METAR CYQH 260000Z 23007KT 150V270 40SM FEW060 BKN090 27/08 A2982 RMK CU2AC4 CLIMAT 27.8/22.1/0.0 SLP102 DENSITY ALT 4300FT= METAR CYQH 260100Z 21007KT 190V260 40SM FEW060 BKN100 BKN230 27/06 A2981 RMK CU2AC4CI1 SLP098 DENSITY ALT 4300FT= METAR CYQH 260200Z 23006KT 40SM FEW060 BKN100 OVC210 25/06 A2980 RMK CU1AC5CI2 SLP095 DENSITY ALT 4100FT= METAR CYQH 260300Z 26009KT 200V260 40SM FEW060 BKN120 OVC230 26/03 A2980 RMK CU1AC4CI3 SLP090 DENSITY ALT 4200FT= METAR CYQH 260400Z 20003KT 160V240 30SM FEW060 BKN140 OVC210 24/05 A2980 RMK SC2AC4CI2 SLP090 DENSITY ALT 4000FT= METAR CYQH 260500Z 21004KT 180V250 30SM BKN090 OVC230 23/07 A2981 RMK AC6CI2 SLP093 DENSITY ALT 3800FT= METAR CYQH 260600Z 24006KT 30SM BKN120 OVC210 21/07 A2982 RMK AC6CI2 CLIMAT 27.5/21.0/0.0 SLP097 DENSITY ALT 3600FT=
 Alaska TAF Map

NOAA's National Weather Service
Alaska Aviation Weather Unit
6930 Sand Lake Road
Anchorage, AK 99502-1845
Disclaimer
Credits
Glossary
Privacy Policy
About Us
Career Opportunities
Contact AAWU Internet Services Site last modified: April, 17th 2012